Startpagina
METAR-TAF:

METAR-TAF

Vliegvelden :

Büchel, Duitsland

breedte: 50-10N, lengte: 007-04E, hoogte: 478 m

Actueel weer

Dit bericht is 1 uur en het 14 minuten geleden gemaakt, om 03:20 UTC
Wind 9 kt uit het westzuidwesten
Temperatuur 7°C
Vochtigheid 93%
Druk 1011 hPa
Zicht 10 km of meer
Verspreide wolken op 400 ft
Gebroken wolken op 800 ft
Gebroken wolken op 4700 ft
lichte regen

METAR: ETSB 260320Z 25009KT 9999 -RA SCT004 BKN008 BKN047 07/06 Q1011 GRN

Tijdstip: 06:34 (04:34 UTC)

Verwachting

Dit bericht is 7 uur en het 4 minuten geleden gemaakt, om 21:30 UTC
Verwachting geldig van 25 om 21 UTC tot 26 om 02 UTC
Wind 8 kt uit het westzuidwesten met uitschieters tot 20 kt
Zicht: 8000 m
Verspreide wolken op 1000 ft
Gebroken wolken op 5000 ft
Wijzigt naar
van 25 om 21 UTC tot 25 om 23 UTC
Wind 8 kt uit het westen
Zicht: 2130 m
Gebroken wolken op 1000 ft
Gebroken wolken op 4000 ft
lichte regen

TAF: ETSB 252130Z 2521/2602 25008G20KT 8000 NSW SCT010 BKN050 BECMG 2521/2523 26008KT 4000 -RA BKN010 BKN040 CANCEL 2130 BY ETGL

Waarnemingen en weersverwachtingen van meer dan 4000 vliegvelden (METAR en TAF).

De beschikbare stations zijn de gele en rode punten op de kaart.

Ga met uw muis naar het station om de naam te zien.

Klik dan om waarnemingen en weersverwachtingen te zien.

kaart wijzigen: klik op de groene knoppen met een zwart kruis om in te zoomen, op de groene knop met een streepje om uit te zoomen of op de groene pijlen voor aangrenzende kaarten.


METAR-TAF: